Time;durP1;ratioP1;P1;durP2;ratioP2;P2;SDS_P1;SDS_P2;PMS_P1;PMS_P2;Temp;Humidity;BMP_temperature;BMP_pressure;BME280_temperature;BME280_humidity;BME280_pressure;Samples;Min_cycle;Max_cycle;Signal;HPM_P1;HPM_P2
2023/10/18 00:03:59;;;;;;;8.98;6.45;;;13.00;81.70;;;;;;10942252;32;20045;-69
2023/10/18 00:10:01;;;;;;;7.80;6.15;;;13.00;81.60;;;;;;10945551;32;20055;-69
2023/10/18 00:16:05;;;;;;;10.10;7.05;;;13.00;81.50;;;;;;10949504;32;20389;-69
2023/10/18 00:22:09;;;;;;;7.05;5.57;;;13.00;81.50;;;;;;10948633;32;20027;-69
2023/10/18 00:28:11;;;;;;;8.20;4.90;;;12.90;81.50;;;;;;10947658;32;20049;-69
2023/10/18 00:34:13;;;;;;;10.85;5.25;;;12.90;81.60;;;;;;10947554;32;20023;-69
2023/10/18 00:46:30;;;;;;;6.78;4.78;;;12.80;81.70;;;;;;10947701;32;20310;-69
2023/10/18 00:52:32;;;;;;;9.63;5.87;;;12.80;81.70;;;;;;10958520;32;20019;-69
2023/10/18 00:58:35;;;;;;;8.15;5.50;;;12.80;81.90;;;;;;10946548;32;20023;-69
2023/10/18 01:04:40;;;;;;;8.80;5.37;;;12.70;81.70;;;;;;10947191;32;20303;-68
2023/10/18 01:10:44;;;;;;;7.60;5.03;;;12.70;81.60;;;;;;10946367;32;20022;-69
2023/10/18 01:16:46;;;;;;;7.37;5.80;;;12.60;81.60;;;;;;10946670;32;20452;-69
2023/10/18 01:22:51;;;;;;;9.98;7.18;;;12.60;81.60;;;;;;10947055;32;20030;-69
2023/10/18 01:28:55;;;;;;;9.80;6.93;;;12.50;81.40;;;;;;10944385;32;20043;-69
2023/10/18 01:34:57;;;;;;;8.48;5.95;;;12.50;81.40;;;;;;10944110;32;20030;-69
2023/10/18 01:41:09;;;;;;;8.35;6.45;;;12.40;81.50;;;;;;10946413;32;20023;-69
2023/10/18 01:47:12;;;;;;;8.65;6.15;;;12.50;81.80;;;;;;10943410;32;20093;-69
2023/10/18 01:53:18;;;;;;;10.32;7.03;;;12.50;81.60;;;;;;10943319;32;20035;-69
2023/10/18 01:59:27;;;;;;;9.60;6.60;;;12.50;82.00;;;;;;10944693;32;20046;-69
2023/10/18 02:05:30;;;;;;;8.88;5.72;;;12.30;82.00;;;;;;10956699;32;20018;-69
2023/10/18 02:11:35;;;;;;;10.52;6.37;;;12.20;82.00;;;;;;10944615;32;20329;-69
2023/10/18 02:17:39;;;;;;;8.77;6.43;;;12.20;81.90;;;;;;10943878;32;20023;-69
2023/10/18 02:23:44;;;;;;;6.93;4.40;;;12.20;81.80;;;;;;10944243;32;20428;-70
2023/10/18 02:29:48;;;;;;;8.27;5.85;;;12.20;82.20;;;;;;10955940;32;20385;-69
2023/10/18 02:35:50;;;;;;;6.20;4.93;;;12.20;82.50;;;;;;10943256;32;20019;-69
2023/10/18 02:41:55;;;;;;;8.02;5.40;;;12.20;82.40;;;;;;10942935;32;20015;-69
2023/10/18 02:47:58;;;;;;;5.78;4.85;;;12.10;82.90;;;;;;10942827;32;20023;-69
2023/10/18 03:00:18;;;;;;;7.93;6.03;;;12.00;82.70;;;;;;10942304;32;20030;-69
2023/10/18 03:06:24;;;;;;;5.60;4.12;;;12.00;82.50;;;;;;10941239;32;20077;-69
2023/10/18 03:12:28;;;;;;;8.93;6.30;;;11.90;82.40;;;;;;10943270;32;20019;-69
2023/10/18 03:18:32;;;;;;;8.15;5.37;;;11.80;82.70;;;;;;10940423;32;20060;-69
2023/10/18 03:24:36;;;;;;;8.35;6.25;;;11.80;82.60;;;;;;10942430;32;20019;-69
2023/10/18 03:30:44;;;;;;;7.55;5.90;;;11.90;82.50;;;;;;10941637;32;20042;-69
2023/10/18 03:36:52;;;;;;;7.75;5.43;;;11.90;82.50;;;;;;10941481;32;20027;-68
2023/10/18 03:42:54;;;;;;;10.57;6.68;;;12.00;82.30;;;;;;10944116;32;20385;-68
2023/10/18 03:49:01;;;;;;;8.70;6.32;;;11.90;82.30;;;;;;10949664;32;20045;-68
2023/10/18 04:01:10;;;;;;;8.48;6.20;;;12.00;82.30;;;;;;10948747;32;20341;-68
2023/10/18 04:07:13;;;;;;;7.53;5.22;;;12.00;82.20;;;;;;10949710;32;20045;-68
2023/10/18 04:13:15;;;;;;;8.38;4.95;;;12.10;82.30;;;;;;10949564;32;20049;-68
2023/10/18 04:19:19;;;;;;;7.40;4.90;;;12.10;82.30;;;;;;10948081;32;20026;-68
2023/10/18 04:25:30;;;;;;;6.87;5.07;;;11.90;82.40;;;;;;10947895;32;20097;-68
2023/10/18 04:31:32;;;;;;;8.30;6.28;;;11.90;82.30;;;;;;10947697;32;20049;-68
2023/10/18 04:37:35;;;;;;;7.45;5.95;;;11.90;82.40;;;;;;10947273;32;20285;-69
2023/10/18 04:43:38;;;;;;;6.57;4.95;;;12.00;82.50;;;;;;10947932;32;20015;-68
2023/10/18 04:49:41;;;;;;;6.62;4.93;;;12.10;82.50;;;;;;10946055;32;20035;-69
2023/10/18 04:55:46;;;;;;;9.85;6.65;;;12.00;82.40;;;;;;10945023;32;20065;-69
2023/10/18 05:01:56;;;;;;;10.00;6.57;;;12.10;82.60;;;;;;10946429;32;20027;-68
2023/10/18 05:08:00;;;;;;;8.32;6.20;;;12.20;82.70;;;;;;10959281;32;20336;-68
2023/10/18 05:14:03;;;;;;;7.47;5.70;;;12.20;82.70;;;;;;10983012;32;20022;-69
2023/10/18 05:26:20;;;;;;;7.60;4.87;;;12.20;82.80;;;;;;10984584;32;20022;-69
2023/10/18 05:44:48;;;;;;;6.50;4.75;;;12.20;84.00;;;;;;10983078;32;20052;-68
2023/10/18 05:51:38;;;;;;;6.90;5.03;;;12.20;84.00;;;;;;10979735;32;20023;-68
2023/10/18 05:57:38;;;;;;;6.62;4.43;;;12.20;84.10;;;;;;10981441;32;20031;-69
2023/10/18 06:03:41;;;;;;;4.57;3.60;;;12.20;84.20;;;;;;10980956;32;20045;-69
2023/10/18 06:09:57;;;;;;;5.37;3.75;;;12.20;84.50;;;;;;10966077;32;20045;-68
2023/10/18 06:16:18;;;;;;;8.75;6.32;;;12.20;84.60;;;;;;10942483;32;20006;-69
2023/10/18 06:22:29;;;;;;;6.25;3.90;;;12.20;84.70;;;;;;10942841;32;20023;-69
2023/10/18 06:28:31;;;;;;;5.78;4.43;;;12.20;84.70;;;;;;10943890;32;20050;-69
2023/10/18 06:34:34;;;;;;;8.23;4.90;;;12.20;84.80;;;;;;10942977;32;20019;-69
2023/10/18 06:47:06;;;;;;;5.87;4.25;;;12.20;85.00;;;;;;10410304;32;17404471;-69
2023/10/18 06:53:11;;;;;;;7.97;5.25;;;12.20;85.30;;;;;;10939998;32;20049;-69
2023/10/18 06:59:14;;;;;;;7.87;4.53;;;12.30;85.20;;;;;;10941424;32;20065;-69
2023/10/18 07:05:17;;;;;;;6.72;4.30;;;12.30;85.10;;;;;;10941836;32;20306;-69
2023/10/18 07:11:19;;;;;;;4.95;2.65;;;12.30;85.10;;;;;;10941277;32;20019;-69
2023/10/18 07:17:24;;;;;;;4.97;3.35;;;12.30;85.30;;;;;;10941332;32;20038;-69
2023/10/18 07:23:26;;;;;;;6.10;3.70;;;12.40;85.30;;;;;;10940100;32;20030;-69
2023/10/18 07:29:29;;;;;;;6.55;4.80;;;12.50;85.20;;;;;;10941421;32;20041;-69
2023/10/18 07:35:31;;;;;;;4.75;3.35;;;12.50;85.10;;;;;;10939221;32;20035;-69
2023/10/18 07:41:36;;;;;;;7.43;4.28;;;12.50;85.30;;;;;;10941626;32;20050;-69
2023/10/18 07:47:38;;;;;;;6.05;4.47;;;12.40;85.50;;;;;;10940227;32;20023;-69
2023/10/18 07:53:40;;;;;;;7.18;4.93;;;12.50;85.60;;;;;;10939490;32;20030;-69
2023/10/18 07:59:52;;;;;;;8.13;5.40;;;12.50;85.60;;;;;;10938447;32;20074;-69
2023/10/18 08:05:56;;;;;;;8.00;5.47;;;12.50;85.50;;;;;;10940496;32;20018;-69
2023/10/18 08:12:22;;;;;;;9.00;7.20;;;12.50;85.80;;;;;;10938975;32;20031;-69
2023/10/18 08:24:49;;;;;;;6.50;5.22;;;12.60;85.90;;;;;;10940314;32;20325;-69
2023/10/18 08:37:04;;;;;;;6.10;4.33;;;12.70;85.80;;;;;;10946779;32;20019;-69
2023/10/18 08:43:36;;;;;;;8.05;5.37;;;12.70;85.80;;;;;;10947273;32;20325;-69
2023/10/18 08:49:50;;;;;;;14.05;5.62;;;12.70;85.80;;;;;;10946996;32;20362;-70
2023/10/18 08:55:57;;;;;;;7.32;4.70;;;12.70;85.90;;;;;;10946028;32;20081;-69
2023/10/18 09:08:26;;;;;;;7.05;5.00;;;12.70;86.00;;;;;;10945541;32;20019;-69
2023/10/18 09:14:28;;;;;;;7.70;4.93;;;12.80;85.90;;;;;;10945935;32;20046;-69
2023/10/18 09:20:31;;;;;;;6.47;4.22;;;12.80;85.80;;;;;;10946021;32;20019;-69
2023/10/18 09:26:41;;;;;;;14.87;4.70;;;12.80;85.80;;;;;;10942808;32;20027;-69
2023/10/18 09:32:45;;;;;;;5.82;4.55;;;12.90;85.70;;;;;;10945508;32;20404;-69
2023/10/18 09:38:49;;;;;;;10.10;5.25;;;12.90;85.60;;;;;;10944675;32;20393;-69
2023/10/18 09:44:51;;;;;;;5.85;4.62;;;12.90;85.40;;;;;;10944911;32;20298;-70
2023/10/18 09:50:54;;;;;;;8.13;6.07;;;13.00;85.50;;;;;;10943775;32;20049;-69
2023/10/18 09:56:57;;;;;;;10.85;6.65;;;13.00;85.40;;;;;;10944991;32;20019;-69
2023/10/18 10:03:08;;;;;;;5.87;4.22;;;13.10;85.30;;;;;;10940703;32;20033;-69
2023/10/18 10:09:14;;;;;;;7.00;4.40;;;13.10;85.30;;;;;;10943396;32;20041;-69
2023/10/18 10:15:17;;;;;;;8.30;5.07;;;13.20;85.00;;;;;;10944033;32;20010;-69
2023/10/18 10:34:24;;;;;;;5.75;4.30;;;13.30;84.60;;;;;;10936051;32;20364;-74
2023/10/18 10:46:39;;;;;;;8.05;5.60;;;13.40;84.20;;;;;;10938957;32;20342;-76
2023/10/18 10:52:44;;;;;;;7.85;5.75;;;13.50;84.10;;;;;;10939213;32;20057;-74
2023/10/18 10:59:03;;;;;;;7.40;4.75;;;13.60;84.40;;;;;;10935686;32;20062;-75
2023/10/18 11:05:16;;;;;;;4.82;3.45;;;13.70;84.20;;;;;;10938001;32;20042;-76
2023/10/18 11:11:22;;;;;;;7.07;4.05;;;13.70;83.90;;;;;;10911401;32;20404;-76
2023/10/18 11:17:24;;;;;;;8.55;4.50;;;13.70;84.00;;;;;;10939978;32;20309;-76
2023/10/18 11:23:28;;;;;;;6.30;4.28;;;13.70;84.10;;;;;;10941125;32;20019;-76
2023/10/18 11:29:31;;;;;;;6.93;4.25;;;13.70;84.20;;;;;;10941471;32;20408;-76
2023/10/18 11:35:42;;;;;;;5.90;4.43;;;13.80;84.20;;;;;;10940316;32;20345;-76
2023/10/18 11:41:49;;;;;;;6.93;4.68;;;13.80;84.30;;;;;;10941305;32;20054;-75
2023/10/18 11:47:51;;;;;;;5.75;4.00;;;13.90;84.20;;;;;;10941914;32;20065;-75
2023/10/18 11:53:54;;;;;;;6.18;4.37;;;13.90;84.10;;;;;;10938775;32;20498;-74
2023/10/18 12:06:22;;;;;;;5.12;4.12;;;14.00;83.80;;;;;;10908443;32;20023;-76
2023/10/18 12:12:40;;;;;;;6.05;4.18;;;14.00;83.70;;;;;;10910611;32;20042;-77
2023/10/18 12:18:42;;;;;;;7.28;4.22;;;14.10;83.30;;;;;;10910379;32;20043;-75
2023/10/18 12:24:44;;;;;;;5.35;3.50;;;14.10;83.50;;;;;;10909294;32;20369;-76
2023/10/18 12:30:54;;;;;;;7.03;5.28;;;14.10;83.50;;;;;;10937495;32;20031;-76
2023/10/18 12:36:58;;;;;;;5.03;3.83;;;14.10;83.60;;;;;;10947658;32;20054;-76
2023/10/18 12:43:01;;;;;;;5.45;3.83;;;14.10;83.50;;;;;;10946376;32;20051;-76
2023/10/18 12:49:10;;;;;;;8.75;4.82;;;14.20;83.50;;;;;;10945475;32;20049;-76
2023/10/18 13:07:44;;;;;;;5.90;4.30;;;14.20;83.80;;;;;;10946454;32;20023;-76
2023/10/18 13:13:47;;;;;;;6.55;4.30;;;14.20;84.00;;;;;;10945337;32;20033;-76
2023/10/18 13:19:51;;;;;;;8.50;4.25;;;14.20;83.90;;;;;;10942755;32;20318;-76
2023/10/18 13:25:54;;;;;;;7.20;4.28;;;14.20;83.70;;;;;;10935080;32;20058;-76
2023/10/18 13:32:06;;;;;;;6.22;4.47;;;14.20;83.80;;;;;;10901057;32;20057;-76
2023/10/18 13:38:09;;;;;;;7.03;4.22;;;14.10;84.00;;;;;;10921232;32;20445;-76
2023/10/18 13:44:11;;;;;;;6.05;4.20;;;14.00;83.90;;;;;;10940348;32;20053;-76
2023/10/18 13:50:17;;;;;;;7.47;4.28;;;13.90;84.00;;;;;;10940428;32;20372;-76
2023/10/18 13:56:21;;;;;;;6.20;3.70;;;13.80;84.20;;;;;;10940371;32;20045;-76
2023/10/18 14:02:26;;;;;;;6.72;5.20;;;13.80;84.40;;;;;;10955687;32;20056;-76
2023/10/18 14:08:28;;;;;;;5.75;4.70;;;13.80;84.60;;;;;;10978166;32;20018;-76
2023/10/18 14:14:31;;;;;;;7.03;4.50;;;13.70;84.60;;;;;;10975529;32;20065;-75
2023/10/18 14:20:37;;;;;;;6.97;4.78;;;13.80;84.70;;;;;;10907004;32;20037;-76
2023/10/18 14:26:40;;;;;;;5.95;4.87;;;13.80;84.80;;;;;;10905859;32;20045;-76
2023/10/18 14:32:45;;;;;;;8.50;5.68;;;13.80;84.60;;;;;;10916684;32;20067;-76
2023/10/18 14:38:47;;;;;;;6.47;4.22;;;13.60;84.60;;;;;;10942416;32;20022;-76
2023/10/18 14:44:49;;;;;;;8.55;4.12;;;13.60;85.00;;;;;;10943969;32;20026;-75
2023/10/18 14:50:51;;;;;;;8.95;5.15;;;13.60;85.20;;;;;;10945630;27;20050;-75
2023/10/18 14:56:53;;;;;;;7.72;6.20;;;13.50;85.20;;;;;;10942828;32;20068;-76
2023/10/18 15:02:56;;;;;;;10.68;5.95;;;13.50;85.20;;;;;;10929850;32;20042;-76
2023/10/18 15:08:58;;;;;;;8.52;5.05;;;13.50;85.30;;;;;;10943037;32;20023;-73
2023/10/18 15:15:00;;;;;;;7.47;4.68;;;13.50;85.30;;;;;;10941822;32;20042;-73
2023/10/18 15:21:03;;;;;;;8.65;5.70;;;13.40;85.50;;;;;;10942412;32;20050;-72
2023/10/18 15:27:34;;;;;;;10.45;6.07;;;13.40;85.50;;;;;;10942864;32;20443;-71
2023/10/18 15:33:38;;;;;;;11.63;7.40;;;13.40;85.50;;;;;;10942319;32;20447;-67
2023/10/18 15:39:43;;;;;;;8.80;6.55;;;13.30;85.70;;;;;;10927359;32;20065;-69
2023/10/18 15:45:51;;;;;;;8.93;5.57;;;13.20;85.80;;;;;;10942627;32;20030;-67
2023/10/18 15:51:53;;;;;;;7.93;4.93;;;13.20;85.80;;;;;;10941231;32;20051;-69
2023/10/18 15:58:21;;;;;;;8.30;6.03;;;13.20;85.80;;;;;;10942876;32;20016;-68
2023/10/18 16:04:24;;;;;;;7.65;5.72;;;13.10;85.90;;;;;;10941535;32;20459;-69
2023/10/18 16:10:30;;;;;;;8.25;4.90;;;13.10;86.00;;;;;;10913644;32;20353;-69
2023/10/18 16:16:32;;;;;;;7.62;5.87;;;13.20;86.00;;;;;;10904017;32;20437;-69
2023/10/18 16:22:35;;;;;;;10.10;7.00;;;13.10;86.00;;;;;;10902875;32;20367;-69
2023/10/18 16:28:37;;;;;;;8.70;7.07;;;13.10;86.00;;;;;;10903137;32;20046;-70
2023/10/18 16:34:40;;;;;;;9.35;6.53;;;13.00;86.10;;;;;;10903391;32;20045;-70
2023/10/18 16:41:05;;;;;;;7.55;5.12;;;13.00;86.20;;;;;;10903299;32;20042;-69
2023/10/18 16:47:22;;;;;;;9.68;5.40;;;13.00;86.30;;;;;;10903675;32;20050;-71
2023/10/18 16:53:24;;;;;;;8.23;5.87;;;12.90;86.30;;;;;;10908481;32;20038;-70
2023/10/18 17:00:12;;;;;;;10.23;8.00;;;12.90;86.30;;;;;;10909070;32;20047;-70
2023/10/18 17:06:22;;;;;;;9.68;7.75;;;12.90;86.30;;;;;;10909473;32;20020;-70
2023/10/18 17:12:35;;;;;;;12.18;10.57;;;12.90;86.40;;;;;;10894621;32;20067;-69
2023/10/18 17:18:54;;;;;;;10.35;8.25;;;12.80;86.40;;;;;;10908567;32;20027;-70
2023/10/18 17:24:57;;;;;;;8.70;7.53;;;12.70;86.40;;;;;;10909198;32;20333;-70
2023/10/18 17:31:00;;;;;;;7.40;5.12;;;12.70;86.70;;;;;;10908176;32;20015;-69
2023/10/18 17:37:02;;;;;;;8.60;6.93;;;12.70;86.70;;;;;;10908082;32;20020;-71
2023/10/18 17:43:04;;;;;;;7.20;5.43;;;12.80;86.60;;;;;;10908862;32;20054;-71
2023/10/18 17:49:06;;;;;;;7.87;6.25;;;12.80;86.80;;;;;;10908074;32;20304;-71
2023/10/18 17:55:10;;;;;;;8.48;6.62;;;12.80;86.80;;;;;;10908526;32;20019;-70
2023/10/18 18:01:22;;;;;;;7.72;5.95;;;12.80;86.60;;;;;;10906848;32;20015;-71
2023/10/18 18:07:25;;;;;;;8.93;6.45;;;12.90;86.70;;;;;;10908109;32;20160;-71
2023/10/18 18:13:27;;;;;;;8.23;5.95;;;12.90;86.60;;;;;;10908077;32;20037;-70
2023/10/18 18:19:29;;;;;;;6.75;4.43;;;12.90;86.70;;;;;;10907156;32;20023;-69
2023/10/18 18:25:33;;;;;;;7.28;6.45;;;12.90;86.70;;;;;;10907457;32;20512;-70
2023/10/18 18:31:35;;;;;;;10.88;8.40;;;13.00;86.80;;;;;;10906019;32;20028;-71
2023/10/18 18:37:38;;;;;;;8.13;7.05;;;13.00;86.60;;;;;;10933036;32;20022;-70
2023/10/18 18:43:42;;;;;;;11.60;8.70;;;13.00;86.50;;;;;;10944575;32;20027;-71
2023/10/18 18:49:50;;;;;;;10.13;7.53;;;13.00;86.70;;;;;;10943338;32;20019;-70
2023/10/18 18:55:53;;;;;;;9.82;7.53;;;13.10;86.60;;;;;;10944044;32;20055;-71
2023/10/18 19:01:55;;;;;;;11.43;8.57;;;13.10;86.60;;;;;;10942707;32;20019;-69
2023/10/18 19:07:57;;;;;;;9.18;7.65;;;13.00;86.70;;;;;;10938528;32;20019;-69
2023/10/18 19:14:00;;;;;;;11.30;9.15;;;13.00;86.60;;;;;;10943296;32;20011;-70
2023/10/18 19:20:03;;;;;;;9.98;8.20;;;12.90;86.70;;;;;;10929378;32;20303;-69
2023/10/18 19:26:10;;;;;;;8.25;5.60;;;12.90;86.90;;;;;;10941942;32;20033;-70
2023/10/18 19:32:12;;;;;;;7.85;6.47;;;12.80;86.80;;;;;;10941955;32;20192;-71
2023/10/18 19:38:15;;;;;;;9.38;7.40;;;12.80;86.90;;;;;;10941597;32;20023;-71
2023/10/18 19:44:37;;;;;;;8.93;6.30;;;12.90;86.80;;;;;;10939574;32;20290;-70
2023/10/18 19:50:41;;;;;;;9.45;6.90;;;12.90;86.90;;;;;;10941779;32;20015;-72
2023/10/18 19:56:43;;;;;;;10.32;7.82;;;12.90;86.90;;;;;;10941958;32;20372;-72
2023/10/18 20:02:46;;;;;;;9.50;7.20;;;13.00;87.00;;;;;;10927873;32;20015;-71
2023/10/18 20:08:49;;;;;;;7.32;4.97;;;13.00;86.90;;;;;;10941188;32;20023;-72
2023/10/18 20:14:51;;;;;;;9.65;7.85;;;13.00;87.00;;;;;;10971246;32;20352;-71
2023/10/18 20:21:05;;;;;;;8.10;7.03;;;13.00;87.00;;;;;;10966092;32;20057;-72
2023/10/18 20:27:08;;;;;;;10.35;7.93;;;13.00;87.10;;;;;;10983921;32;20344;-72
2023/10/18 20:33:10;;;;;;;12.88;9.23;;;13.00;87.00;;;;;;10985705;32;20023;-72
2023/10/18 20:39:36;;;;;;;7.80;6.70;;;13.00;86.80;;;;;;10983974;32;20010;-73
2023/10/18 20:45:40;;;;;;;7.53;5.45;;;13.10;86.90;;;;;;10971601;32;20030;-72
2023/10/18 20:51:43;;;;;;;7.53;5.93;;;13.10;86.80;;;;;;10985023;32;20018;-72
2023/10/18 20:58:07;;;;;;;7.35;5.15;;;13.10;86.90;;;;;;10985485;32;20035;-70
2023/10/18 21:04:16;;;;;;;8.82;7.12;;;13.00;86.90;;;;;;10971221;32;20033;-70
2023/10/18 21:10:18;;;;;;;10.13;7.90;;;13.00;87.10;;;;;;10984376;32;20096;-73
2023/10/18 21:16:21;;;;;;;8.90;6.87;;;13.00;87.10;;;;;;10985420;32;20056;-72
2023/10/18 21:22:23;;;;;;;10.88;8.27;;;13.00;87.00;;;;;;10984041;32;20018;-73
2023/10/18 21:28:26;;;;;;;10.02;7.75;;;13.00;87.00;;;;;;10956469;32;20058;-74
2023/10/18 21:34:28;;;;;;;11.73;8.55;;;13.10;87.10;;;;;;10947126;32;20023;-73
2023/10/18 21:40:32;;;;;;;12.07;9.18;;;13.10;87.10;;;;;;10932126;32;20034;-74
2023/10/18 21:46:34;;;;;;;11.82;7.78;;;13.00;87.10;;;;;;10946582;32;20333;-73
2023/10/18 21:52:37;;;;;;;12.57;7.57;;;13.10;87.00;;;;;;10932533;32;20389;-73
2023/10/18 21:58:40;;;;;;;11.05;9.00;;;13.10;86.90;;;;;;10943754;32;20023;-73
2023/10/18 22:04:43;;;;;;;10.20;7.43;;;13.20;86.90;;;;;;10931370;32;20034;-73
2023/10/18 22:10:45;;;;;;;10.60;7.47;;;13.10;87.00;;;;;;10944740;32;20023;-74
2023/10/18 22:16:55;;;;;;;11.23;8.40;;;13.10;87.00;;;;;;10944505;32;20011;-72
2023/10/18 22:22:58;;;;;;;8.90;7.15;;;13.10;87.00;;;;;;10944265;32;20033;-74
2023/10/18 22:29:00;;;;;;;17.00;10.63;;;13.20;86.90;;;;;;10930713;32;20015;-73
2023/10/18 22:35:02;;;;;;;9.30;7.30;;;13.20;86.90;;;;;;10943751;32;20037;-74
2023/10/18 22:41:12;;;;;;;12.15;8.85;;;13.20;86.80;;;;;;10943642;32;20019;-74
2023/10/18 22:47:20;;;;;;;9.23;7.65;;;13.20;86.80;;;;;;10948396;27;20314;-73
2023/10/18 22:53:31;;;;;;;9.87;8.10;;;13.30;86.70;;;;;;10943834;32;20322;-73
2023/10/18 22:59:37;;;;;;;12.85;11.00;;;13.30;86.80;;;;;;10943031;32;20020;-73
2023/10/18 23:38:09;;;;;;;10.20;7.95;;;13.10;86.50;;;;;;10941949;32;20019;-73
2023/10/18 23:44:16;;;;;;;10.27;7.65;;;13.10;86.70;;;;;;10942909;32;20019;-73
2023/10/18 23:50:23;;;;;;;10.40;8.23;;;13.20;86.50;;;;;;10953585;32;20019;-73
2023/10/18 23:56:29;;;;;;;14.23;8.65;;;13.20;86.50;;;;;;10941510;32;20011;-74
